sensor_id;sensor_type;location;lat;lon;timestamp;P1;P2;P0
45112;PMS5003;30873;53.908;27.576;2023-11-21T06:41:49;28.4;23.1;15.1
45112;PMS5003;30873;53.908;27.576;2023-11-21T06:46:39;31.3;26.4;15.4
45112;PMS5003;30873;53.908;27.576;2023-11-21T06:51:23;31.8;26.8;16.3
45112;PMS5003;30873;53.908;27.576;2023-11-21T06:56:15;33.7;27.1;17.1
45112;PMS5003;30873;53.908;27.576;2023-11-21T07:01:15;39.5;33.2;20.1
45112;PMS5003;30873;53.908;27.576;2023-11-21T07:06:07;32.9;27.9;17.9
45112;PMS5003;30873;53.908;27.576;2023-11-21T07:11:51;33;27;17.4
45112;PMS5003;30873;53.908;27.576;2023-11-21T07:16:35;47.3;39.2;28.6
45112;PMS5003;30873;53.908;27.576;2023-11-21T07:21:09;35.3;28.3;18.1
45112;PMS5003;30873;53.908;27.576;2023-11-21T07:26:51;41.3;34.4;23.8
45112;PMS5003;30873;53.908;27.576;2023-11-21T07:31:21;30.2;24.8;16.4
45112;PMS5003;30873;53.908;27.576;2023-11-21T07:36:51;30.8;25.5;15.9
45112;PMS5003;30873;53.908;27.576;2023-11-21T07:41:09;27.4;24;14.2
45112;PMS5003;30873;53.908;27.576;2023-11-21T07:46:21;29.4;24.4;14.9
45112;PMS5003;30873;53.908;27.576;2023-11-21T07:51:07;27.3;23.5;14
45112;PMS5003;30873;53.908;27.576;2023-11-21T07:56:08;35.9;29.6;18.3
45112;PMS5003;30873;53.908;27.576;2023-11-21T08:01:35;29.7;24.7;15
45112;PMS5003;30873;53.908;27.576;2023-11-21T08:06:35;31.2;26.1;16.8
45112;PMS5003;30873;53.908;27.576;2023-11-21T08:11:51;27.9;24.2;15.2
45112;PMS5003;30873;53.908;27.576;2023-11-21T08:16:07;31.3;27.1;16.6
45112;PMS5003;30873;53.908;27.576;2023-11-21T08:21:21;28.3;23.7;14.5
45112;PMS5003;30873;53.908;27.576;2023-11-21T08:26:51;31.1;26.2;15.7
45112;PMS5003;30873;53.908;27.576;2023-11-21T08:31:31;27.6;23.4;14.3
45112;PMS5003;30873;53.908;27.576;2023-11-21T08:36:07;25.7;22.7;14
45112;PMS5003;30873;53.908;27.576;2023-11-21T08:41:17;29.6;25.6;15.3
45112;PMS5003;30873;53.908;27.576;2023-11-21T08:46:17;33.3;27.6;16.9
45112;PMS5003;30873;53.908;27.576;2023-11-21T08:51:33;26.2;21.5;13.3
45112;PMS5003;30873;53.908;27.576;2023-11-21T08:56:07;25.9;22.4;13.5
45112;PMS5003;30873;53.908;27.576;2023-11-21T09:01:49;28;23.5;13.9
45112;PMS5003;30873;53.908;27.576;2023-11-21T09:06:33;27.4;23.9;15
45112;PMS5003;30873;53.908;27.576;2023-11-21T09:11:09;28.5;25.1;15.6
45112;PMS5003;30873;53.908;27.576;2023-11-21T09:16:47;24.3;20.9;13
45112;PMS5003;30873;53.908;27.576;2023-11-21T09:21:17;26.5;21.9;14
45112;PMS5003;30873;53.908;27.576;2023-11-21T09:26:21;25.1;22.8;13.8
45112;PMS5003;30873;53.908;27.576;2023-11-21T09:31:17;26.1;21.9;14
45112;PMS5003;30873;53.908;27.576;2023-11-21T09:36:29;23.4;20.3;13.1
45112;PMS5003;30873;53.908;27.576;2023-11-21T09:41:37;26.3;23.1;14.9
45112;PMS5003;30873;53.908;27.576;2023-11-21T09:46:09;23.8;21.6;13.6
45112;PMS5003;30873;53.908;27.576;2023-11-21T09:51:51;24.1;21.3;14.3
45112;PMS5003;30873;53.908;27.576;2023-11-21T09:56:37;32.1;26.7;17.8
45112;PMS5003;30873;53.908;27.576;2023-11-21T10:01:07;31.4;26.9;17.5
45112;PMS5003;30873;53.908;27.576;2023-11-21T10:06:49;23.7;20.3;13.1
45112;PMS5003;30873;53.908;27.576;2023-11-21T10:11:08;22.9;19.9;12.8
45112;PMS5003;30873;53.908;27.576;2023-11-21T10:16:21;20.8;18;11.7
45112;PMS5003;30873;53.908;27.576;2023-11-21T10:21:07;22.1;19.6;12.5
45112;PMS5003;30873;53.908;27.576;2023-11-21T10:26:17;25.8;23;15.5
45112;PMS5003;30873;53.908;27.576;2023-11-21T10:31:37;24.9;20.1;12.7
45112;PMS5003;30873;53.908;27.576;2023-11-21T10:36:11;22;19.3;12.2
45112;PMS5003;30873;53.908;27.576;2023-11-21T10:41:49;20.9;17.4;10.9
45112;PMS5003;30873;53.908;27.576;2023-11-21T10:46:33;19.2;17;10.3
45112;PMS5003;30873;53.908;27.576;2023-11-21T10:51:21;18.9;16;10.4
45112;PMS5003;30873;53.908;27.576;2023-11-21T10:56:49;18.1;15.6;10.2
45112;PMS5003;30873;53.908;27.576;2023-11-21T11:01:09;19.3;17.3;11.6
45112;PMS5003;30873;53.908;27.576;2023-11-21T11:06:07;17.1;15;9.9
45112;PMS5003;30873;53.908;27.576;2023-11-21T11:11:07;15.1;13.6;8.9
45112;PMS5003;30873;53.908;27.576;2023-11-21T11:16:09;14.5;12.6;8.6
45112;PMS5003;30873;53.908;27.576;2023-11-21T11:21:37;17.1;14.6;9.6
45112;PMS5003;30873;53.908;27.576;2023-11-21T11:26:20;16;13.7;8.6
45112;PMS5003;30873;53.908;27.576;2023-11-21T11:31:10;16.6;13.6;9
45112;PMS5003;30873;53.908;27.576;2023-11-21T11:36:54;21.2;18.4;11.2
45112;PMS5003;30873;53.908;27.576;2023-11-21T11:41:09;19.8;16.8;10.6
45112;PMS5003;30873;53.908;27.576;2023-11-21T11:46:47;18.3;15.7;10.4
45112;PMS5003;30873;53.908;27.576;2023-11-21T11:51:25;16.3;14.6;10
45112;PMS5003;30873;53.908;27.576;2023-11-21T11:56:19;15.8;13.7;8.8
45112;PMS5003;30873;53.908;27.576;2023-11-21T12:01:49;17.2;15.6;10.2
45112;PMS5003;30873;53.908;27.576;2023-11-21T12:06:17;17;15.1;9.4
45112;PMS5003;30873;53.908;27.576;2023-11-21T12:11:51;16.6;14.3;9
45112;PMS5003;30873;53.908;27.576;2023-11-21T12:16:37;18.9;15.9;9.9
45112;PMS5003;30873;53.908;27.576;2023-11-21T12:21:23;20.1;17.7;11.3
45112;PMS5003;30873;53.908;27.576;2023-11-21T12:26:51;20.9;17.7;10.9
45112;PMS5003;30873;53.908;27.576;2023-11-21T12:31:19;18;16;10.3
45112;PMS5003;30873;53.908;27.576;2023-11-21T12:36:51;21.1;18.6;11.8
45112;PMS5003;30873;53.908;27.576;2023-11-21T12:41:09;23.1;20.3;13.2
45112;PMS5003;30873;53.908;27.576;2023-11-21T12:46:09;19.8;15.9;10.7
45112;PMS5003;30873;53.908;27.576;2023-11-21T12:51:53;17.6;15.1;9.4
45112;PMS5003;30873;53.908;27.576;2023-11-21T12:56:17;15.1;13.7;9
45112;PMS5003;30873;53.908;27.576;2023-11-21T13:01:51;17.1;14.9;10.3
45112;PMS5003;30873;53.908;27.576;2023-11-21T13:06:37;18.5;15.6;9.2
45112;PMS5003;30873;53.908;27.576;2023-11-21T13:11:41;17.3;15.1;9.6
45112;PMS5003;30873;53.908;27.576;2023-11-21T13:16:41;15.3;14;8.7
45112;PMS5003;30873;53.908;27.576;2023-11-21T13:21:29;14.6;12.6;8.7
45112;PMS5003;30873;53.908;27.576;2023-11-21T13:26:43;17.4;15.4;10.1
45112;PMS5003;30873;53.908;27.576;2023-11-21T13:31:09;17.7;15.4;11.1
45112;PMS5003;30873;53.908;27.576;2023-11-21T13:36:09;21.9;20.5;16.1
45112;PMS5003;30873;53.908;27.576;2023-11-21T13:41:51;22.9;20.1;14.9
45112;PMS5003;30873;53.908;27.576;2023-11-21T13:46:17;32.2;28.6;21.8
45112;PMS5003;30873;53.908;27.576;2023-11-21T13:51:45;36.4;31.8;24
45112;PMS5003;30873;53.908;27.576;2023-11-21T13:56:37;36.7;31.6;25
45112;PMS5003;30873;53.908;27.576;2023-11-21T14:01:27;43.8;36.8;30.2
45112;PMS5003;30873;53.908;27.576;2023-11-21T14:06:21;20.7;17.3;12.6
45112;PMS5003;30873;53.908;27.576;2023-11-21T14:11:31;17.4;14.8;10.5
45112;PMS5003;30873;53.908;27.576;2023-11-21T14:16:53;20.4;18.3;12.7
45112;PMS5003;30873;53.908;27.576;2023-11-21T14:21:37;33.9;29.4;21.5
45112;PMS5003;30873;53.908;27.576;2023-11-21T14:26:09;40.1;34.8;24.9
45112;PMS5003;30873;53.908;27.576;2023-11-21T14:31:51;33.3;29.3;21.1
45112;PMS5003;30873;53.908;27.576;2023-11-21T14:36:17;42.2;35.8;26.6
45112;PMS5003;30873;53.908;27.576;2023-11-21T14:41:51;35.2;30.8;22.3
45112;PMS5003;30873;53.908;27.576;2023-11-21T14:46:35;37.3;32.3;24.5
45112;PMS5003;30873;53.908;27.576;2023-11-21T14:51:27;34.5;30.9;23
45112;PMS5003;30873;53.908;27.576;2023-11-21T14:56:33;32.6;28.8;22.3
45112;PMS5003;30873;53.908;27.576;2023-11-21T15:01:30;28.1;25.5;19.2
45112;PMS5003;30873;53.908;27.576;2023-11-21T15:06:23;40.2;33.9;26
45112;PMS5003;30873;53.908;27.576;2023-11-21T15:11:25;42.3;36.4;28.7
45112;PMS5003;30873;53.908;27.576;2023-11-21T15:16:23;37.6;32.9;24.6
45112;PMS5003;30873;53.908;27.576;2023-11-21T15:21:53;31.7;28.5;22
45112;PMS5003;30873;53.908;27.576;2023-11-21T15:26:15;36.9;32.5;23.9
45112;PMS5003;30873;53.908;27.576;2023-11-21T15:31:53;35.6;31.4;23.9
45112;PMS5003;30873;53.908;27.576;2023-11-21T15:36:37;40.3;35.1;27.4
45112;PMS5003;30873;53.908;27.576;2023-11-21T15:41:27;32.5;29.8;22.2
45112;PMS5003;30873;53.908;27.576;2023-11-21T15:46:53;28.4;25.8;18.6
45112;PMS5003;30873;53.908;27.576;2023-11-21T15:51:33;27.6;24.9;17.2
45112;PMS5003;30873;53.908;27.576;2023-11-21T15:56:23;34;29.6;22.3
45112;PMS5003;30873;53.908;27.576;2023-11-21T16:01:09;29.9;27;18.8
45112;PMS5003;30873;53.908;27.576;2023-11-21T16:06:09;31.6;27.5;19.8
45112;PMS5003;30873;53.908;27.576;2023-11-21T16:11:33;30.9;27.4;20.7
45112;PMS5003;30873;53.908;27.576;2023-11-21T16:16:09;30.4;27.2;20.7
45112;PMS5003;30873;53.908;27.576;2023-11-21T16:21:25;28.3;26.4;19.8
45112;PMS5003;30873;53.908;27.576;2023-11-21T16:26:40;29.6;26.7;20.5
45112;PMS5003;30873;53.908;27.576;2023-11-21T16:31:25;29;27.4;20.4
45112;PMS5003;30873;53.908;27.576;2023-11-21T16:36:51;30.6;28.1;21.2
45112;PMS5003;30873;53.908;27.576;2023-11-21T16:41:31;28.8;27.5;20
45112;PMS5003;30873;53.908;27.576;2023-11-21T16:46:43;32.8;30;22.9
45112;PMS5003;30873;53.908;27.576;2023-11-21T16:51:07;31.3;28.4;22.4
45112;PMS5003;30873;53.908;27.576;2023-11-21T16:56:07;40.8;36.9;29
45112;PMS5003;30873;53.908;27.576;2023-11-21T17:01:49;33.4;30.6;23.5
45112;PMS5003;30873;53.908;27.576;2023-11-21T17:06:07;27.6;26;20.7
45112;PMS5003;30873;53.908;27.576;2023-11-21T17:11:07;45.8;39.7;30.9
45112;PMS5003;30873;53.908;27.576;2023-11-21T17:16:35;42.8;37.7;29
45112;PMS5003;30873;53.908;27.576;2023-11-21T17:21:43;48.8;42.6;36.7
45112;PMS5003;30873;53.908;27.576;2023-11-21T17:26:49;40.4;35.7;28.7
45112;PMS5003;30873;53.908;27.576;2023-11-21T17:31:31;38.9;34.5;27.1
45112;PMS5003;30873;53.908;27.576;2023-11-21T17:36:21;53;49;43.1
45112;PMS5003;30873;53.908;27.576;2023-11-21T17:41:37;43.3;38.9;31.5
45112;PMS5003;30873;53.908;27.576;2023-11-21T17:46:41;50.7;46.9;42
45112;PMS5003;30873;53.908;27.576;2023-11-21T17:51:51;60.1;55.1;48
45112;PMS5003;30873;53.908;27.576;2023-11-21T17:56:17;14.7;13.8;10.8
45112;PMS5003;30873;53.908;27.576;2023-11-21T18:01:27;11.3;10;7.9
45112;PMS5003;30873;53.908;27.576;2023-11-21T18:06:37;11.3;9.8;6.5
45112;PMS5003;30873;53.908;27.576;2023-11-21T18:11:27;9.7;8.3;6.3
45112;PMS5003;30873;53.908;27.576;2023-11-21T18:16:51;23.3;21.9;17.3
45112;PMS5003;30873;53.908;27.576;2023-11-21T18:21:39;43;38.2;29
45112;PMS5003;30873;53.908;27.576;2023-11-21T18:26:21;41.9;37.2;31.3
45112;PMS5003;30873;53.908;27.576;2023-11-21T18:31:07;48;42.6;34.9
45112;PMS5003;30873;53.908;27.576;2023-11-21T18:36:23;35.3;32.9;25.8
45112;PMS5003;30873;53.908;27.576;2023-11-21T18:41:52;46.2;41.6;34.5
45112;PMS5003;30873;53.908;27.576;2023-11-21T18:46:07;40.1;35.7;28.2
45112;PMS5003;30873;53.908;27.576;2023-11-21T18:51:27;41.3;37.7;30.7
45112;PMS5003;30873;53.908;27.576;2023-11-21T18:56:37;27.9;27.2;22.6
45112;PMS5003;30873;53.908;27.576;2023-11-21T19:01:41;31.3;28.8;22.2
45112;PMS5003;30873;53.908;27.576;2023-11-21T19:06:51;36.2;33.7;28.7
45112;PMS5003;30873;53.908;27.576;2023-11-21T19:11:31;30.9;28.7;23.2
45112;PMS5003;30873;53.908;27.576;2023-11-21T19:16:39;36.8;32.7;26.3
45112;PMS5003;30873;53.908;27.576;2023-11-21T19:21:28;35.3;32.6;26.7
45112;PMS5003;30873;53.908;27.576;2023-11-21T19:26:10;34.4;31.6;25
45112;PMS5003;30873;53.908;27.576;2023-11-21T19:31:53;26.5;24.8;20
45112;PMS5003;30873;53.908;27.576;2023-11-21T19:36:29;46.4;43.7;36.7
45112;PMS5003;30873;53.908;27.576;2023-11-21T19:41:41;26.8;25;19.5
45112;PMS5003;30873;53.908;27.576;2023-11-21T19:46:37;19.8;18.7;13.1
45112;PMS5003;30873;53.908;27.576;2023-11-21T19:51:27;28.2;26.7;22.7
45112;PMS5003;30873;53.908;27.576;2023-11-21T19:56:51;24.3;22.2;16.7
45112;PMS5003;30873;53.908;27.576;2023-11-21T20:01:53;24.8;22.5;17.4
45112;PMS5003;30873;53.908;27.576;2023-11-21T20:06:09;28.8;26.9;21
45112;PMS5003;30873;53.908;27.576;2023-11-21T20:11:07;25;22.7;18.2
45112;PMS5003;30873;53.908;27.576;2023-11-21T20:16:51;21;19.4;14.3
45112;PMS5003;30873;53.908;27.576;2023-11-21T20:21:53;32.2;29.3;23.5
45112;PMS5003;30873;53.908;27.576;2023-11-21T20:26:07;32.7;29.2;24
45112;PMS5003;30873;53.908;27.576;2023-11-21T20:31:27;31.2;27.8;22.4
45112;PMS5003;30873;53.908;27.576;2023-11-21T20:36:39;27.6;26.1;21.6
45112;PMS5003;30873;53.908;27.576;2023-11-21T20:41:29;22.3;21.3;15.4
45112;PMS5003;30873;53.908;27.576;2023-11-21T20:46:45;23.8;23;18.8
45112;PMS5003;30873;53.908;27.576;2023-11-21T20:51:25;17;16.1;12.8
45112;PMS5003;30873;53.908;27.576;2023-11-21T20:56:09;20.7;19.2;14.9
45112;PMS5003;30873;53.908;27.576;2023-11-21T21:01:09;30.9;28.1;24.3
45112;PMS5003;30873;53.908;27.576;2023-11-21T21:06:07;37.2;33.7;28.7
45112;PMS5003;30873;53.908;27.576;2023-11-21T21:11:55;32.5;29.4;24
45112;PMS5003;30873;53.908;27.576;2023-11-21T21:16:09;37.1;33.3;27
45112;PMS5003;30873;53.908;27.576;2023-11-21T21:21:31;77;71.8;68.8
45112;PMS5003;30873;53.908;27.576;2023-11-21T21:26:09;168.9;168.5;167.4
45112;PMS5003;30873;53.908;27.576;2023-11-21T21:31:29;123.5;121.4;120.1
45112;PMS5003;30873;53.908;27.576;2023-11-21T21:36:53;27;24.3;20.1
45112;PMS5003;30873;53.908;27.576;2023-11-21T21:41:21;45.2;39.9;33.8
45112;PMS5003;30873;53.908;27.576;2023-11-21T21:46:09;31.4;28.9;24.1
45112;PMS5003;30873;53.908;27.576;2023-11-21T21:51:37;49;44.7;40.7
45112;PMS5003;30873;53.908;27.576;2023-11-21T21:56:23;44.8;38.6;32.2
45112;PMS5003;30873;53.908;27.576;2023-11-21T22:01:33;85.3;81.8;77.6
45112;PMS5003;30873;53.908;27.576;2023-11-21T22:06:51;45.8;39.6;33.7
45112;PMS5003;30873;53.908;27.576;2023-11-21T22:11:07;38.6;34.1;28.8
45112;PMS5003;30873;53.908;27.576;2023-11-21T22:16:39;39.2;34.6;28.9
45112;PMS5003;30873;53.908;27.576;2023-11-21T22:21:12;41.7;36;31
45112;PMS5003;30873;53.908;27.576;2023-11-21T22:26:55;36;32.2;26.9
45112;PMS5003;30873;53.908;27.576;2023-11-21T22:31:31;29.8;26.6;21.6
45112;PMS5003;30873;53.908;27.576;2023-11-21T22:36:12;46.3;41.3;34.8
45112;PMS5003;30873;53.908;27.576;2023-11-21T22:41:27;135.1;134;133.1
45112;PMS5003;30873;53.908;27.576;2023-11-21T22:46:07;173.5;171.9;171
45112;PMS5003;30873;53.908;27.576;2023-11-21T22:51:55;86.6;80.5;75.8
45112;PMS5003;30873;53.908;27.576;2023-11-21T22:56:33;22.9;20.9;18
45112;PMS5003;30873;53.908;27.576;2023-11-21T23:01:07;26.1;24.7;20.9
45112;PMS5003;30873;53.908;27.576;2023-11-21T23:06:39;39.8;35.1;29.1
45112;PMS5003;30873;53.908;27.576;2023-11-21T23:11:29;52.1;47.3;40.7
45112;PMS5003;30873;53.908;27.576;2023-11-21T23:16:55;62.7;58.5;53.9
45112;PMS5003;30873;53.908;27.576;2023-11-21T23:21:33;89.4;86.6;82.7
45112;PMS5003;30873;53.908;27.576;2023-11-21T23:26:07;35.9;33.4;28.3
45112;PMS5003;30873;53.908;27.576;2023-11-21T23:31:29;25.1;23.3;17.8
45112;PMS5003;30873;53.908;27.576;2023-11-21T23:36:23;25;23.4;18.8
45112;PMS5003;30873;53.908;27.576;2023-11-21T23:41:55;33.2;29.7;23.3
45112;PMS5003;30873;53.908;27.576;2023-11-21T23:46:17;37.4;34.9;29.1
45112;PMS5003;30873;53.908;27.576;2023-11-21T23:51:29;25.4;23.5;17.5
45112;PMS5003;30873;53.908;27.576;2023-11-21T23:56:39;34;31.4;26
